Аэропорт
Кишинев (LUKK)

 LUKK / KIV
vACC Молдова
Кишинев (LUUU)
Кишинев (LUUU)
 46.92770, 28.93100  / 399 ft

 LUKK 311030Z 01015KT CAVOK 06/M09 Q1021 R08/D NOSIG
 TAF LUKK 310520Z 3106/0106 35014KT CAVOK TEMPO 3106/3112 01016G26KT BECMG 3115/3117 36006KT
Название сценария Тип сценария Flight Simulator 9 Flight Simulator X Prepar3D v2 Prepar3D v3 Prepar3D v4 xPlane
LUKK Chisinau X платный(+демо)


2020 © VATRUS division (Privacy Policy)